Overview Statistics Trail Chart Weather Telemetry Raw packets
 

This is the latest recevied weather packets stored in our database for station/object NR0A-4. If no packets are shown the sender has not sent any weather packets the latest 10 day(s).

<< 66 67 68 69 70 71 72 >>
Time Temp. Humidity Pressure Rain* Wind** Luminosity Snow
1788197104 26.67° C 65% 1014.5 hPa 0 mm - 738 W/m² -
1788196804 26.67° C 69% 1014.5 hPa 0 mm - 733 W/m² -
1788196504 26.67° C 67% 1014.3 hPa 0 mm - 728 W/m² -
1788196204 26.11° C 66% 1014.2 hPa 0 mm - 726 W/m² -
1788195904 26.11° C 66% 1014.2 hPa 0 mm - 717 W/m² -
1788195604 26.11° C 68% 1014.1 hPa 0 mm - 710 W/m² -
1788195321 26.11° C 70% 1014 hPa 0 mm - 703 W/m² -
1788195004 26.11° C 69% 1014.1 hPa 0 mm - 696 W/m² -
1788194704 25.56° C 69% 1014 hPa 0 mm - 689 W/m² -
1788194404 25.56° C 69% 1014.1 hPa 0 mm - 682 W/m² -
1788194104 25.56° C 68% 1014.1 hPa 0 mm - 670 W/m² -
1788193804 25.56° C 69% 1014.1 hPa 0 mm - 664 W/m² -
1788193504 25.56° C 69% 1014 hPa 0 mm - 659 W/m² -
1788193204 25.56° C 71% 1014.2 hPa 0 mm - 649 W/m² -
1788192904 25.56° C 70% 1014.2 hPa 0 mm - 645 W/m² -
1788192604 25° C 71% 1014.3 hPa 0 mm - 645 W/m² -
1788192305 25° C 74% 1014.5 hPa 0 mm - 645 W/m² -
1788192014 24.44° C 71% 1014.2 hPa 0 mm - 643 W/m² -
1788191704 24.44° C 71% 1014.1 hPa 0 mm - 631 W/m² -
1788191404 23.89° C 72% 1014 hPa 0 mm - 617 W/m² -
1788191104 23.89° C 72% 1014 hPa 0 mm - 587 W/m² -
1788190804 23.89° C 76% 1014.2 hPa 0 mm - 568 W/m² -
1788190504 23.33° C 75% 1014.3 hPa 0 mm - 568 W/m² -
1788190204 22.78° C 77% 1014.3 hPa 0 mm - 552 W/m² -
1788189904 22.78° C 75% 1014.2 hPa 0 mm - 248 W/m² -

* Rain latest hour (hover to see other rain measurements)
** Current wind speed in m/s (hover to see current wind gust speed)